createdAt,value
2018-09-11T00:00:16.103Z,0.00
2018-09-11T00:01:16.077Z,0.00
2018-09-11T00:02:16.082Z,0.00
2018-09-11T00:03:16.072Z,0.00
2018-09-11T00:04:16.044Z,0.00
2018-09-11T00:05:16.032Z,0.00
2018-09-11T00:06:16.060Z,0.00
2018-09-11T00:07:16.021Z,0.00
2018-09-11T00:08:15.999Z,0.00
2018-09-11T00:09:23.563Z,0.00
2018-09-11T00:10:15.979Z,0.00
2018-09-11T00:11:15.994Z,0.00
2018-09-11T00:12:15.972Z,0.00
2018-09-11T00:13:16.027Z,0.00
2018-09-11T00:14:15.938Z,0.00
2018-09-11T00:15:15.922Z,0.00
2018-09-11T00:16:15.982Z,0.00
2018-09-11T00:17:15.941Z,0.00
2018-09-11T00:18:15.906Z,0.00
2018-09-11T00:19:15.908Z,0.00
2018-09-11T00:20:15.864Z,0.00
2018-09-11T00:21:15.860Z,0.00
2018-09-11T00:22:15.872Z,0.00
2018-09-11T00:23:15.834Z,0.00
2018-09-11T00:24:15.931Z,0.00
2018-09-11T00:25:15.849Z,0.00
2018-09-11T00:26:15.913Z,0.00
2018-09-11T00:27:15.807Z,0.00
2018-09-11T00:28:23.716Z,0.00
2018-09-11T00:29:15.797Z,0.00
2018-09-11T00:30:15.757Z,0.00
2018-09-11T00:31:15.773Z,0.00
2018-09-11T00:32:15.734Z,0.00
2018-09-11T00:33:15.725Z,0.00
2018-09-11T00:34:15.743Z,0.00
2018-09-11T00:35:15.726Z,0.00
2018-09-11T00:36:15.779Z,0.00
2018-09-11T00:37:15.716Z,0.00
2018-09-11T00:38:23.322Z,0.00
2018-09-11T00:39:15.677Z,0.00
2018-09-11T00:40:15.643Z,0.00
2018-09-11T00:41:15.647Z,0.00
2018-09-11T00:42:15.624Z,0.00
2018-09-11T00:43:15.630Z,0.00
2018-09-11T00:44:15.625Z,0.00
2018-09-11T00:45:15.688Z,0.00
2018-09-11T00:46:15.633Z,0.00
2018-09-11T00:47:15.614Z,0.00
2018-09-11T00:48:24.933Z,0.00
2018-09-11T00:49:15.556Z,0.00
2018-09-11T00:50:15.609Z,0.00
2018-09-11T00:51:15.563Z,0.00
2018-09-11T00:52:15.546Z,0.00
2018-09-11T00:53:15.498Z,0.00
2018-09-11T00:54:15.572Z,0.00
2018-09-11T00:55:15.475Z,0.00
2018-09-11T00:56:15.465Z,0.00
2018-09-11T00:57:15.475Z,0.00
2018-09-11T00:58:24.406Z,0.00
2018-09-11T00:59:15.451Z,0.00
2018-09-11T01:00:15.493Z,0.00
2018-09-11T01:01:15.433Z,0.00
2018-09-11T01:02:15.433Z,0.00
2018-09-11T01:03:15.399Z,0.00
2018-09-11T01:04:15.381Z,0.00
2018-09-11T01:05:15.412Z,0.00
2018-09-11T01:06:15.358Z,0.00
2018-09-11T01:07:15.341Z,0.00
2018-09-11T01:08:15.346Z,0.00
2018-09-11T01:09:15.323Z,0.00
2018-09-11T01:10:15.415Z,0.00
2018-09-11T01:11:15.331Z,0.00
2018-09-11T01:12:15.288Z,0.00
2018-09-11T01:13:15.277Z,0.00
2018-09-11T01:14:15.265Z,0.00
2018-09-11T01:15:15.317Z,0.00
2018-09-11T01:16:15.242Z,0.00
2018-09-11T01:17:15.323Z,0.00
2018-09-11T01:18:15.224Z,0.00
2018-09-11T01:19:15.217Z,0.00
2018-09-11T01:20:15.199Z,0.00
2018-09-11T01:21:15.190Z,0.00
2018-09-11T01:22:15.177Z,0.00
2018-09-11T01:23:15.188Z,0.00
2018-09-11T01:24:15.201Z,0.00
2018-09-11T01:25:15.156Z,0.00
2018-09-11T01:26:15.132Z,0.00
2018-09-11T01:27:23.289Z,0.00
2018-09-11T01:28:15.142Z,0.00
2018-09-11T01:29:15.170Z,0.00
2018-09-11T01:30:15.161Z,0.00
2018-09-11T01:31:15.154Z,0.00
2018-09-11T01:32:15.083Z,0.00
2018-09-11T01:33:15.054Z,0.00
2018-09-11T01:34:15.067Z,0.00
2018-09-11T01:35:15.033Z,0.00
2018-09-11T01:36:15.073Z,0.00
2018-09-11T01:37:25.396Z,0.00
2018-09-11T01:38:15.052Z,0.00
2018-09-11T01:39:15.014Z,0.00
2018-09-11T01:40:14.979Z,0.00
2018-09-11T01:41:15.024Z,0.00
2018-09-11T01:42:14.952Z,0.00
2018-09-11T01:43:15.063Z,0.00
2018-09-11T01:44:15.006Z,0.00
2018-09-11T01:45:14.939Z,0.00
2018-09-11T01:46:14.910Z,0.00
2018-09-11T01:47:14.930Z,0.00
2018-09-11T01:48:14.892Z,0.00
2018-09-11T01:49:14.916Z,0.00
2018-09-11T01:50:14.888Z,0.00
2018-09-11T01:51:14.882Z,0.00
2018-09-11T01:52:14.846Z,0.00
2018-09-11T01:53:14.831Z,0.00
2018-09-11T01:54:14.822Z,0.00
2018-09-11T01:55:14.831Z,0.00
2018-09-11T01:56:14.816Z,0.00
2018-09-11T01:57:24.002Z,0.00
2018-09-11T01:58:14.812Z,0.00
2018-09-11T01:59:14.767Z,0.00
2018-09-11T02:00:14.807Z,0.00
2018-09-11T02:01:14.754Z,0.00
2018-09-11T02:02:14.774Z,0.00
2018-09-11T02:03:14.774Z,0.00
2018-09-11T02:04:14.711Z,0.00
2018-09-11T02:05:14.727Z,0.00
2018-09-11T02:06:14.755Z,0.00
2018-09-11T02:07:14.679Z,0.00
2018-09-11T02:08:14.675Z,0.00
2018-09-11T02:09:14.686Z,0.00
2018-09-11T02:10:14.797Z,0.00
2018-09-11T02:11:14.633Z,0.00
2018-09-11T02:12:14.680Z,0.00
2018-09-11T02:13:14.624Z,0.00
2018-09-11T02:14:14.601Z,0.00
2018-09-11T02:15:14.598Z,0.00
2018-09-11T02:16:22.598Z,0.00
2018-09-11T02:17:14.589Z,0.00
2018-09-11T02:18:14.611Z,0.00
2018-09-11T02:19:14.622Z,0.00
2018-09-11T02:20:14.536Z,0.00
2018-09-11T02:21:14.523Z,0.00
2018-09-11T02:22:14.511Z,0.00
2018-09-11T02:23:14.540Z,0.00
2018-09-11T02:24:14.511Z,0.00
2018-09-11T02:25:14.481Z,0.00
2018-09-11T02:26:22.590Z,0.00
2018-09-11T02:27:14.539Z,0.00
2018-09-11T02:28:14.500Z,0.00
2018-09-11T02:29:14.462Z,0.00
2018-09-11T02:30:14.490Z,0.00
2018-09-11T02:31:14.417Z,0.00
2018-09-11T02:32:14.400Z,0.00
2018-09-11T02:33:14.397Z,0.00
2018-09-11T02:34:14.378Z,0.00
2018-09-11T02:35:14.367Z,0.00
2018-09-11T02:36:14.390Z,0.00
2018-09-11T02:37:14.346Z,0.00
2018-09-11T02:38:14.332Z,0.00
2018-09-11T02:39:14.320Z,0.00
2018-09-11T02:40:14.312Z,0.00
2018-09-11T02:41:14.314Z,0.00
2018-09-11T02:42:14.309Z,0.00
2018-09-11T02:43:14.277Z,0.00
2018-09-11T02:44:14.268Z,0.00
2018-09-11T02:45:14.272Z,0.00
2018-09-11T02:46:21.929Z,0.00
2018-09-11T02:47:14.284Z,0.00
2018-09-11T02:48:14.331Z,0.00
2018-09-11T02:49:14.233Z,0.00
2018-09-11T02:50:14.209Z,0.00
2018-09-11T02:51:14.255Z,0.00
2018-09-11T02:52:14.179Z,0.00
2018-09-11T02:53:14.187Z,0.00
2018-09-11T02:54:14.189Z,0.00
2018-09-11T02:55:14.211Z,0.00
2018-09-11T02:56:14.135Z,0.00
2018-09-11T02:57:14.167Z,0.00
2018-09-11T02:58:14.113Z,0.00
2018-09-11T02:59:14.103Z,0.00
2018-09-11T03:00:14.101Z,0.00
2018-09-11T03:01:14.081Z,0.00
2018-09-11T03:02:14.080Z,0.00
2018-09-11T03:03:14.092Z,0.00
2018-09-11T03:04:14.048Z,0.00
2018-09-11T03:05:14.037Z,0.00
2018-09-11T03:06:14.055Z,0.00
2018-09-11T03:07:14.050Z,0.00
2018-09-11T03:08:14.000Z,0.00
2018-09-11T03:09:14.034Z,0.00
2018-09-11T03:10:13.979Z,0.00
2018-09-11T03:11:13.970Z,0.00
2018-09-11T03:12:14.012Z,0.00
2018-09-11T03:13:13.946Z,0.00
2018-09-11T03:14:13.934Z,0.00
2018-09-11T03:15:21.895Z,0.00
2018-09-11T03:16:13.953Z,0.00
2018-09-11T03:17:13.910Z,0.00
2018-09-11T03:18:13.949Z,0.00
2018-09-11T03:19:13.948Z,0.00
2018-09-11T03:20:13.903Z,0.00
2018-09-11T03:21:14.005Z,0.00
2018-09-11T03:22:13.847Z,0.00
2018-09-11T03:23:13.858Z,0.00
2018-09-11T03:24:13.862Z,0.00
2018-09-11T03:25:13.825Z,0.00
2018-09-11T03:26:13.806Z,0.00
2018-09-11T03:27:13.796Z,0.00
2018-09-11T03:28:13.796Z,0.00
2018-09-11T03:29:13.768Z,0.00
2018-09-11T03:30:13.806Z,0.00
2018-09-11T03:31:13.748Z,0.00
2018-09-11T03:32:13.737Z,0.00
2018-09-11T03:33:13.726Z,0.00
2018-09-11T03:34:13.714Z,0.00
2018-09-11T03:35:13.702Z,0.00
2018-09-11T03:36:13.710Z,0.00
2018-09-11T03:37:13.686Z,0.00
2018-09-11T03:38:13.667Z,0.00
2018-09-11T03:39:13.710Z,0.00
2018-09-11T03:40:13.723Z,0.00
2018-09-11T03:41:13.637Z,0.00
2018-09-11T03:42:13.642Z,0.00
2018-09-11T03:43:13.697Z,0.00
2018-09-11T03:44:13.631Z,0.00
2018-09-11T03:45:21.578Z,0.00
2018-09-11T03:46:13.616Z,0.00
2018-09-11T03:47:13.576Z,0.00
2018-09-11T03:48:13.643Z,0.00
2018-09-11T03:49:13.560Z,0.00
2018-09-11T03:50:13.539Z,0.00
2018-09-11T03:51:13.537Z,0.00
2018-09-11T03:52:13.515Z,0.00
2018-09-11T03:53:13.596Z,0.00
2018-09-11T03:54:13.547Z,0.00
2018-09-11T03:55:21.466Z,0.00
2018-09-11T03:56:13.476Z,0.00
2018-09-11T03:57:13.509Z,0.00
2018-09-11T03:58:13.466Z,0.00
2018-09-11T03:59:13.514Z,0.00
2018-09-11T04:00:13.435Z,0.00
2018-09-11T04:01:13.425Z,0.00
2018-09-11T04:02:13.404Z,0.00
2018-09-11T04:03:13.410Z,0.00
2018-09-11T04:04:13.422Z,0.00
2018-09-11T04:05:13.371Z,0.00
2018-09-11T04:06:13.359Z,0.00
2018-09-11T04:07:13.400Z,0.00
2018-09-11T04:08:13.338Z,0.00
2018-09-11T04:09:13.384Z,0.00
2018-09-11T04:10:13.320Z,0.00
2018-09-11T04:11:13.322Z,0.00
2018-09-11T04:12:13.295Z,0.00
2018-09-11T04:13:13.282Z,0.00
2018-09-11T04:14:22.668Z,0.00
2018-09-11T04:15:13.314Z,0.00
2018-09-11T04:16:13.251Z,0.00
2018-09-11T04:17:13.241Z,0.00
2018-09-11T04:18:13.332Z,0.00
2018-09-11T04:19:13.246Z,0.00
2018-09-11T04:20:13.236Z,0.00
2018-09-11T04:21:13.209Z,0.00
2018-09-11T04:22:13.189Z,0.00
2018-09-11T04:23:13.171Z,0.00
2018-09-11T04:24:13.176Z,0.00
2018-09-11T04:25:13.169Z,0.00
2018-09-11T04:26:13.156Z,0.00
2018-09-11T04:27:13.133Z,0.00
2018-09-11T04:28:13.150Z,0.00
2018-09-11T04:29:13.106Z,0.00
2018-09-11T04:30:13.097Z,0.00
2018-09-11T04:31:13.120Z,0.00
2018-09-11T04:32:13.094Z,0.00
2018-09-11T04:33:13.092Z,0.00
2018-09-11T04:34:13.051Z,0.00
2018-09-11T04:35:13.043Z,0.00
2018-09-11T04:36:13.084Z,0.00
2018-09-11T04:37:13.017Z,0.00
2018-09-11T04:38:13.013Z,0.00
2018-09-11T04:39:12.994Z,0.00
2018-09-11T04:40:13.033Z,0.00
2018-09-11T04:41:12.973Z,0.00
2018-09-11T04:42:12.987Z,0.00
2018-09-11T04:43:20.865Z,0.00
2018-09-11T04:44:12.994Z,4.00
2018-09-11T04:45:13.051Z,4.00
2018-09-11T04:46:12.926Z,0.00
2018-09-11T04:47:12.925Z,0.00
2018-09-11T04:48:12.926Z,4.00
2018-09-11T04:49:12.915Z,0.00
2018-09-11T04:50:12.962Z,0.00
2018-09-11T04:51:12.901Z,4.00
2018-09-11T04:52:12.888Z,4.00
2018-09-11T04:53:12.874Z,8.00
2018-09-11T04:54:12.866Z,4.00
2018-09-11T04:55:12.818Z,8.00
2018-09-11T04:56:12.888Z,4.00
2018-09-11T04:57:12.796Z,8.00
2018-09-11T04:58:12.785Z,8.00
2018-09-11T04:59:12.795Z,8.00
2018-09-11T05:00:12.784Z,8.00
2018-09-11T05:01:12.767Z,12.00
2018-09-11T05:02:12.744Z,8.00
2018-09-11T05:03:20.773Z,12.00
2018-09-11T05:04:12.721Z,16.00
2018-09-11T05:05:12.752Z,16.00
2018-09-11T05:06:12.721Z,16.00
2018-09-11T05:07:12.687Z,20.00
2018-09-11T05:08:12.734Z,24.00
2018-09-11T05:09:12.664Z,20.00
2018-09-11T05:10:12.656Z,28.00
2018-09-11T05:11:12.646Z,32.00
2018-09-11T05:12:12.650Z,36.00
2018-09-11T05:13:20.651Z,36.00
2018-09-11T05:14:12.617Z,40.00
2018-09-11T05:15:12.603Z,36.00
2018-09-11T05:16:12.606Z,36.00
2018-09-11T05:17:12.584Z,40.00
2018-09-11T05:18:12.653Z,44.00
2018-09-11T05:19:12.711Z,48.00
2018-09-11T05:20:12.690Z,48.00
2018-09-11T05:21:12.536Z,52.00
2018-09-11T05:22:12.529Z,48.00
2018-09-11T05:23:12.544Z,48.00
2018-09-11T05:24:12.499Z,44.00
2018-09-11T05:25:12.578Z,52.00
2018-09-11T05:26:12.484Z,44.00
2018-09-11T05:27:12.510Z,36.00
2018-09-11T05:28:12.467Z,40.00
2018-09-11T05:29:12.471Z,48.00
2018-09-11T05:30:12.435Z,68.00
2018-09-11T05:31:12.424Z,80.00
2018-09-11T05:32:12.412Z,76.00
2018-09-11T05:33:20.478Z,80.00
2018-09-11T05:34:12.496Z,96.00
2018-09-11T05:35:12.443Z,124.00
2018-09-11T05:36:12.396Z,128.00
2018-09-11T05:37:12.367Z,152.00
2018-09-11T05:38:12.344Z,164.00
2018-09-11T05:39:12.452Z,192.00
2018-09-11T05:40:12.475Z,180.00
2018-09-11T05:41:12.333Z,176.00
2018-09-11T05:42:12.321Z,184.00
2018-09-11T05:43:12.292Z,204.00
2018-09-11T05:44:12.278Z,216.00
2018-09-11T05:45:12.279Z,220.00
2018-09-11T05:46:12.261Z,244.00
2018-09-11T05:47:12.392Z,272.00
2018-09-11T05:48:12.234Z,296.00
2018-09-11T05:49:12.223Z,272.00
2018-09-11T05:50:12.212Z,244.00
2018-09-11T05:51:12.219Z,268.00
2018-09-11T05:52:22.247Z,240.00
2018-09-11T05:53:12.246Z,200.00
2018-09-11T05:54:12.253Z,240.00
2018-09-11T05:55:12.207Z,272.00
2018-09-11T05:56:12.189Z,276.00
2018-09-11T05:57:12.160Z,244.00
2018-09-11T05:58:12.237Z,244.00
2018-09-11T05:59:12.139Z,172.00
2018-09-11T06:00:12.112Z,168.00
2018-09-11T06:01:12.096Z,212.00
2018-09-11T06:02:19.999Z,328.00
2018-09-11T06:03:12.162Z,356.00
2018-09-11T06:04:12.102Z,292.00
2018-09-11T06:05:12.052Z,304.00
2018-09-11T06:06:12.041Z,264.00
2018-09-11T06:07:12.134Z,192.00
2018-09-11T06:08:12.065Z,168.00
2018-09-11T06:09:12.035Z,144.00
2018-09-11T06:10:12.014Z,148.00
2018-09-11T06:11:11.982Z,184.00
2018-09-11T06:12:19.952Z,184.00
2018-09-11T06:13:11.974Z,172.00
2018-09-11T06:14:11.950Z,160.00
2018-09-11T06:15:11.972Z,152.00
2018-09-11T06:16:12.005Z,128.00
2018-09-11T06:17:11.925Z,140.00
2018-09-11T06:18:11.910Z,152.00
2018-09-11T06:19:11.921Z,148.00
2018-09-11T06:20:11.881Z,160.00
2018-09-11T06:21:11.915Z,176.00
2018-09-11T06:22:21.349Z,184.00
2018-09-11T06:23:11.861Z,180.00
2018-09-11T06:24:11.840Z,144.00
2018-09-11T06:25:11.840Z,140.00
2018-09-11T06:26:11.833Z,164.00
2018-09-11T06:27:11.993Z,188.00
2018-09-11T06:28:11.827Z,192.00
2018-09-11T06:29:11.897Z,236.00
2018-09-11T06:30:11.801Z,208.00
2018-09-11T06:31:11.763Z,180.00
2018-09-11T06:32:11.761Z,176.00
2018-09-11T06:33:11.740Z,196.00
2018-09-11T06:34:11.726Z,192.00
2018-09-11T06:35:11.746Z,208.00
2018-09-11T06:36:11.726Z,224.00
2018-09-11T06:37:11.718Z,268.00
2018-09-11T06:38:11.684Z,284.00
2018-09-11T06:39:11.674Z,332.00
2018-09-11T06:40:11.685Z,236.00
2018-09-11T06:41:11.712Z,224.00
2018-09-11T06:42:11.754Z,240.00
2018-09-11T06:43:11.629Z,216.00
2018-09-11T06:44:11.633Z,208.00
2018-09-11T06:45:11.623Z,188.00
2018-09-11T06:46:11.595Z,188.00
2018-09-11T06:47:11.589Z,204.00
2018-09-11T06:48:11.599Z,220.00
2018-09-11T06:49:11.563Z,292.00
2018-09-11T06:50:11.572Z,268.00
2018-09-11T06:51:11.555Z,292.00
2018-09-11T06:52:20.651Z,344.00
2018-09-11T06:53:11.701Z,344.00
2018-09-11T06:54:11.514Z,352.00
2018-09-11T06:55:11.559Z,304.00
2018-09-11T06:56:11.723Z,292.00
2018-09-11T06:57:11.757Z,288.00
2018-09-11T06:58:11.513Z,252.00
2018-09-11T06:59:11.450Z,236.00
2018-09-11T07:00:11.479Z,256.00
2018-09-11T07:01:11.428Z,284.00
2018-09-11T07:02:19.048Z,248.00
2018-09-11T07:03:11.553Z,272.00
2018-09-11T07:04:11.402Z,304.00
2018-09-11T07:05:11.441Z,332.00
2018-09-11T07:06:11.375Z,404.00
2018-09-11T07:07:11.459Z,412.00
2018-09-11T07:08:11.541Z,468.00
2018-09-11T07:09:11.368Z,464.00
2018-09-11T07:10:11.334Z,492.00
2018-09-11T07:11:11.435Z,508.00
2018-09-11T07:12:11.452Z,484.00
2018-09-11T07:13:11.406Z,528.00
2018-09-11T07:14:11.595Z,384.00
2018-09-11T07:15:11.318Z,428.00
2018-09-11T07:16:11.262Z,420.00
2018-09-11T07:17:11.363Z,324.00
2018-09-11T07:18:11.267Z,332.00
2018-09-11T07:19:11.227Z,340.00
2018-09-11T07:20:11.598Z,292.00
2018-09-11T07:21:11.242Z,304.00
2018-09-11T07:22:18.842Z,312.00
2018-09-11T07:23:11.258Z,264.00
2018-09-11T07:24:11.204Z,272.00
2018-09-11T07:25:11.259Z,276.00
2018-09-11T07:26:11.207Z,288.00
2018-09-11T07:27:11.183Z,232.00
2018-09-11T07:28:11.870Z,252.00
2018-09-11T07:29:11.144Z,264.00
2018-09-11T07:30:11.137Z,284.00
2018-09-11T07:31:11.124Z,304.00
2018-09-11T07:32:11.851Z,300.00
2018-09-11T07:33:11.409Z,336.00
2018-09-11T07:34:11.093Z,320.00
2018-09-11T07:35:11.087Z,352.00
2018-09-11T07:36:11.070Z,340.00
2018-09-11T07:37:11.337Z,300.00
2018-09-11T07:38:11.950Z,252.00
2018-09-11T07:39:11.420Z,256.00
2018-09-11T07:40:11.028Z,244.00
2018-09-11T07:41:11.873Z,252.00
2018-09-11T07:42:11.001Z,268.00
2018-09-11T07:43:10.989Z,332.00
2018-09-11T07:44:11.063Z,348.00
2018-09-11T07:45:11.852Z,352.00
2018-09-11T07:46:10.958Z,392.00
2018-09-11T07:47:10.944Z,480.00
2018-09-11T07:48:11.853Z,436.00
2018-09-11T07:49:10.948Z,480.00
2018-09-11T07:50:10.963Z,492.00
2018-09-11T07:51:18.900Z,512.00
2018-09-11T07:52:10.925Z,512.00
2018-09-11T07:53:11.425Z,464.00
2018-09-11T07:54:10.901Z,480.00
2018-09-11T07:55:11.029Z,536.00
2018-09-11T07:56:10.976Z,432.00
2018-09-11T07:57:11.180Z,440.00
2018-09-11T07:58:10.867Z,460.00
2018-09-11T07:59:10.794Z,456.00
2018-09-11T08:00:10.833Z,500.00
2018-09-11T08:01:10.808Z,444.00
2018-09-11T08:02:10.750Z,484.00
2018-09-11T08:03:10.839Z,572.00
2018-09-11T08:04:10.775Z,440.00
2018-09-11T08:05:10.770Z,496.00
2018-09-11T08:06:10.708Z,592.00
2018-09-11T08:07:10.697Z,668.00
2018-09-11T08:08:10.681Z,776.00
2018-09-11T08:09:10.784Z,704.00
2018-09-11T08:10:10.679Z,720.00
2018-09-11T08:11:18.759Z,856.00
2018-09-11T08:12:10.662Z,740.00
2018-09-11T08:13:10.690Z,932.00
2018-09-11T08:14:10.769Z,848.00
2018-09-11T08:15:10.976Z,940.00
2018-09-11T08:16:10.658Z,876.00
2018-09-11T08:17:10.583Z,768.00
2018-09-11T08:18:10.571Z,696.00
2018-09-11T08:19:10.615Z,648.00
2018-09-11T08:20:10.568Z,808.00
2018-09-11T08:21:10.541Z,828.00
2018-09-11T08:22:10.588Z,736.00
2018-09-11T08:23:10.517Z,616.00
2018-09-11T08:24:10.520Z,588.00
2018-09-11T08:25:10.492Z,772.00
2018-09-11T08:26:10.485Z,708.00
2018-09-11T08:27:18.467Z,604.00
2018-09-11T08:28:10.642Z,540.00
2018-09-11T08:29:10.683Z,516.00
2018-09-11T08:30:10.454Z,644.00
2018-09-11T08:31:10.636Z,704.00
2018-09-11T08:32:10.440Z,736.00
2018-09-11T08:33:10.445Z,772.00
2018-09-11T08:34:10.428Z,716.00
2018-09-11T08:35:10.390Z,660.00
2018-09-11T08:36:10.660Z,860.00
2018-09-11T08:37:10.461Z,916.00
2018-09-11T08:38:10.457Z,972.00
2018-09-11T08:39:10.339Z,896.00
2018-09-11T08:40:10.386Z,916.00
2018-09-11T08:41:10.352Z,1272.00
2018-09-11T08:42:10.410Z,672.00
2018-09-11T08:43:10.385Z,568.00
2018-09-11T08:44:10.324Z,648.00
2018-09-11T08:45:10.290Z,612.00
2018-09-11T08:46:10.307Z,800.00
2018-09-11T08:47:19.694Z,612.00
2018-09-11T08:48:10.280Z,716.00
2018-09-11T08:49:10.231Z,712.00
2018-09-11T08:50:10.236Z,708.00
2018-09-11T08:51:10.278Z,784.00
2018-09-11T08:52:10.359Z,1044.00
2018-09-11T08:53:10.247Z,2132.00
2018-09-11T08:54:10.519Z,2048.00
2018-09-11T08:55:10.165Z,1276.00
2018-09-11T08:56:10.230Z,936.00
2018-09-11T08:57:10.191Z,968.00
2018-09-11T08:58:10.159Z,1008.00
2018-09-11T08:59:10.122Z,1128.00
2018-09-11T09:00:10.136Z,1464.00
2018-09-11T09:01:10.117Z,1028.00
2018-09-11T09:02:10.085Z,956.00
2018-09-11T09:03:10.169Z,1804.00
2018-09-11T09:04:10.067Z,1016.00
2018-09-11T09:05:10.052Z,1732.00
2018-09-11T09:06:10.110Z,952.00
2018-09-11T09:07:10.032Z,1876.00
2018-09-11T09:08:10.025Z,1896.00
2018-09-11T09:09:10.176Z,1424.00
2018-09-11T09:10:10.218Z,1808.00
2018-09-11T09:11:09.989Z,1512.00
2018-09-11T09:12:09.979Z,1920.00
2018-09-11T09:13:09.966Z,1940.00
2018-09-11T09:14:10.066Z,1852.00
2018-09-11T09:15:10.004Z,1088.00
2018-09-11T09:16:18.052Z,1616.00
2018-09-11T09:17:09.959Z,792.00
2018-09-11T09:18:09.984Z,984.00
2018-09-11T09:19:09.938Z,1616.00
2018-09-11T09:20:10.115Z,1632.00
2018-09-11T09:21:10.018Z,1448.00
2018-09-11T09:22:10.134Z,1220.00
2018-09-11T09:23:09.899Z,1532.00
2018-09-11T09:24:09.844Z,1060.00
2018-09-11T09:25:09.870Z,1276.00
2018-09-11T09:26:21.273Z,1356.00
2018-09-11T09:27:09.859Z,1148.00
2018-09-11T09:28:09.804Z,1096.00
2018-09-11T09:29:09.850Z,1024.00
2018-09-11T09:30:09.860Z,1120.00
2018-09-11T09:31:09.806Z,1288.00
2018-09-11T09:32:09.869Z,2112.00
2018-09-11T09:33:09.766Z,1128.00
2018-09-11T09:34:09.734Z,1072.00
2018-09-11T09:35:09.743Z,1752.00
2018-09-11T09:36:09.712Z,1124.00
2018-09-11T09:37:09.701Z,1072.00
2018-09-11T09:38:09.749Z,1180.00
2018-09-11T09:39:09.679Z,1680.00
2018-09-11T09:40:09.673Z,1516.00
2018-09-11T09:41:09.698Z,940.00
2018-09-11T09:42:09.649Z,1148.00
2018-09-11T09:43:09.751Z,1036.00
2018-09-11T09:44:09.648Z,1148.00
2018-09-11T09:45:17.526Z,988.00
2018-09-11T09:46:09.692Z,1076.00
2018-09-11T09:47:09.591Z,1064.00
2018-09-11T09:48:09.682Z,1640.00
2018-09-11T09:49:09.682Z,1356.00
2018-09-11T09:50:09.689Z,1968.00
2018-09-11T09:51:09.889Z,1640.00
2018-09-11T09:52:09.582Z,1068.00
2018-09-11T09:53:09.545Z,1828.00
2018-09-11T09:54:09.545Z,1004.00
2018-09-11T09:55:09.574Z,2408.00
2018-09-11T09:56:09.520Z,1016.00
2018-09-11T09:57:09.496Z,2196.00
2018-09-11T09:58:09.476Z,1388.00
2018-09-11T09:59:09.522Z,2364.00
2018-09-11T10:00:09.497Z,2572.00
2018-09-11T10:01:09.441Z,2516.00
2018-09-11T10:02:09.432Z,1264.00
2018-09-11T10:03:09.417Z,2796.00
2018-09-11T10:04:09.457Z,2780.00
2018-09-11T10:05:09.417Z,2752.00
2018-09-11T10:06:09.386Z,2560.00
2018-09-11T10:07:09.376Z,2664.00
2018-09-11T10:08:09.365Z,2596.00
2018-09-11T10:09:09.351Z,2448.00
2018-09-11T10:10:09.451Z,2564.00
2018-09-11T10:11:09.342Z,2112.00
2018-09-11T10:12:09.318Z,1216.00
2018-09-11T10:13:18.626Z,2500.00
2018-09-11T10:14:09.334Z,2568.00
2018-09-11T10:15:09.309Z,2588.00
2018-09-11T10:16:09.352Z,2536.00
2018-09-11T10:17:09.329Z,2316.00
2018-09-11T10:18:09.259Z,2380.00
2018-09-11T10:19:09.295Z,2420.00
2018-09-11T10:20:09.275Z,2244.00
2018-09-11T10:21:09.339Z,2320.00
2018-09-11T10:22:09.313Z,2592.00
2018-09-11T10:23:09.543Z,2636.00
2018-09-11T10:24:09.241Z,2572.00
2018-09-11T10:25:09.178Z,2552.00
2018-09-11T10:26:09.206Z,2520.00
2018-09-11T10:27:09.224Z,1900.00
2018-09-11T10:28:09.202Z,2740.00
2018-09-11T10:29:09.135Z,2532.00
2018-09-11T10:30:09.244Z,2420.00
2018-09-11T10:31:09.113Z,2372.00
2018-09-11T10:32:09.098Z,2380.00
2018-09-11T10:33:18.673Z,1728.00
2018-09-11T10:34:09.107Z,2488.00
2018-09-11T10:35:09.192Z,2492.00
2018-09-11T10:36:09.180Z,2104.00
2018-09-11T10:37:09.202Z,2164.00
2018-09-11T10:38:09.062Z,796.00
2018-09-11T10:39:09.030Z,1272.00
2018-09-11T10:40:09.053Z,2552.00
2018-09-11T10:41:09.040Z,2660.00
2018-09-11T10:42:08.988Z,2668.00
2018-09-11T10:43:17.090Z,2636.00
2018-09-11T10:44:09.051Z,2672.00
2018-09-11T10:45:08.957Z,2588.00
2018-09-11T10:46:09.012Z,2556.00
2018-09-11T10:47:08.968Z,2716.00
2018-09-11T10:48:08.929Z,2044.00
2018-09-11T10:49:09.112Z,2680.00
2018-09-11T10:50:08.903Z,2592.00
2018-09-11T10:51:08.890Z,2384.00
2018-09-11T10:52:18.191Z,2716.00
2018-09-11T10:53:08.923Z,2724.00
2018-09-11T10:54:08.973Z,2772.00
2018-09-11T10:55:08.938Z,2784.00
2018-09-11T10:56:09.190Z,2804.00
2018-09-11T10:57:08.884Z,2640.00
2018-09-11T10:58:08.862Z,2640.00
2018-09-11T10:59:08.806Z,2556.00
2018-09-11T11:00:08.790Z,2616.00
2018-09-11T11:01:08.819Z,2500.00
2018-09-11T11:02:08.768Z,2488.00
2018-09-11T11:03:08.882Z,2172.00
2018-09-11T11:04:08.758Z,2656.00
2018-09-11T11:05:08.800Z,2584.00
2018-09-11T11:06:08.723Z,2528.00
2018-09-11T11:07:08.708Z,2544.00
2018-09-11T11:08:08.787Z,2444.00
2018-09-11T11:09:08.708Z,2652.00
2018-09-11T11:10:08.708Z,2740.00
2018-09-11T11:11:08.665Z,2520.00
2018-09-11T11:12:17.049Z,2380.00
2018-09-11T11:13:08.775Z,2360.00
2018-09-11T11:14:08.665Z,2400.00
2018-09-11T11:15:08.713Z,2632.00
2018-09-11T11:16:08.640Z,2476.00
2018-09-11T11:17:08.664Z,2640.00
2018-09-11T11:18:08.619Z,2652.00
2018-09-11T11:19:08.610Z,2720.00
2018-09-11T11:20:08.722Z,2620.00
2018-09-11T11:21:08.642Z,2736.00
2018-09-11T11:22:16.778Z,2716.00
2018-09-11T11:23:08.572Z,2836.00
2018-09-11T11:24:08.575Z,2860.00
2018-09-11T11:25:08.526Z,2808.00
2018-09-11T11:26:08.528Z,2772.00
2018-09-11T11:27:08.566Z,2800.00
2018-09-11T11:28:08.539Z,2848.00
2018-09-11T11:29:08.519Z,2812.00
2018-09-11T11:30:08.482Z,2568.00
2018-09-11T11:31:08.614Z,2704.00
2018-09-11T11:32:08.492Z,2884.00
2018-09-11T11:33:08.718Z,2900.00
2018-09-11T11:34:08.409Z,2884.00
2018-09-11T11:35:08.437Z,2800.00
2018-09-11T11:36:08.474Z,2748.00
2018-09-11T11:37:08.500Z,2752.00
2018-09-11T11:38:08.456Z,2720.00
2018-09-11T11:39:08.355Z,2676.00
2018-09-11T11:40:08.421Z,2680.00
2018-09-11T11:41:16.492Z,2420.00
2018-09-11T11:42:08.394Z,2516.00
2018-09-11T11:43:08.323Z,2804.00
2018-09-11T11:44:08.352Z,3096.00
2018-09-11T11:45:08.374Z,2612.00
2018-09-11T11:46:08.610Z,2376.00
2018-09-11T11:47:08.308Z,2500.00
2018-09-11T11:48:08.279Z,2416.00
2018-09-11T11:49:08.284Z,2588.00
2018-09-11T11:50:08.289Z,3204.00
2018-09-11T11:51:08.224Z,2876.00
2018-09-11T11:52:08.294Z,2676.00
2018-09-11T11:53:08.202Z,2692.00
2018-09-11T11:54:08.190Z,2540.00
2018-09-11T11:55:08.272Z,2640.00
2018-09-11T11:56:08.189Z,2644.00
2018-09-11T11:57:08.199Z,2568.00
2018-09-11T11:58:08.149Z,2328.00
2018-09-11T11:59:08.174Z,2432.00
2018-09-11T12:00:08.122Z,2592.00
2018-09-11T12:01:17.214Z,2464.00
2018-09-11T12:02:08.285Z,2500.00
2018-09-11T12:03:08.142Z,2488.00
2018-09-11T12:04:08.149Z,2592.00
2018-09-11T12:05:08.075Z,2536.00
2018-09-11T12:06:08.088Z,2652.00
2018-09-11T12:07:08.074Z,2528.00
2018-09-11T12:08:08.043Z,2432.00
2018-09-11T12:09:08.051Z,2424.00
2018-09-11T12:10:08.163Z,2536.00
2018-09-11T12:11:08.087Z,2536.00
2018-09-11T12:12:08.144Z,2432.00
2018-09-11T12:13:08.035Z,2388.00
2018-09-11T12:14:07.975Z,2496.00
2018-09-11T12:15:07.999Z,2476.00
2018-09-11T12:16:07.956Z,2424.00
2018-09-11T12:17:08.012Z,2556.00
2018-09-11T12:18:07.969Z,2508.00
2018-09-11T12:19:07.933Z,2376.00
2018-09-11T12:20:07.912Z,2396.00
2018-09-11T12:21:07.897Z,2468.00
2018-09-11T12:22:07.884Z,2432.00
2018-09-11T12:23:07.919Z,2384.00
2018-09-11T12:24:07.898Z,2300.00
2018-09-11T12:25:07.871Z,2312.00
2018-09-11T12:26:07.892Z,2372.00
2018-09-11T12:27:07.845Z,2340.00
2018-09-11T12:28:07.822Z,2344.00
2018-09-11T12:29:07.809Z,2380.00
2018-09-11T12:30:07.828Z,2332.00
2018-09-11T12:32:23.296Z,2328.00
2018-09-11T12:33:23.120Z,2348.00
2018-09-11T12:34:23.343Z,2384.00
2018-09-11T12:35:23.140Z,2260.00
2018-09-11T12:36:23.369Z,2188.00
2018-09-11T12:37:23.166Z,1948.00
2018-09-11T12:38:23.259Z,2176.00
2018-09-11T12:39:23.113Z,2120.00
2018-09-11T12:40:23.056Z,2144.00
2018-09-11T12:41:23.074Z,2140.00
2018-09-11T12:42:23.048Z,2076.00